Time;durP1;ratioP1;P1;durP2;ratioP2;P2;SDS_P1;SDS_P2;PMS_P1;PMS_P2;Temp;Humidity;BMP_temperature;BMP_pressure;BME280_temperature;BME280_humidity;BME280_pressure;Samples;Min_cycle;Max_cycle;Signal;HPM_P1;HPM_P2
2023/02/05 00:02:19;;;;;;;6.88;2.65;;;;;;;;;;6209482;23;20355;-61
2023/02/05 00:04:46;;;;;;;10.98;2.28;;;;;;;;;;6207941;23;20020;-61
2023/02/05 00:07:20;;;;;;;4.45;2.45;;;;;;;;;;6208519;23;20027;-62
2023/02/05 00:09:47;;;;;;;6.13;2.08;;;;;;;;;;6208948;23;20033;-63
2023/02/05 00:12:14;;;;;;;7.15;2.50;;;;;;;;;;6182847;23;20349;-63
2023/02/05 00:14:48;;;;;;;6.95;2.30;;;;;;;;;;6207945;23;20024;-63
2023/02/05 00:17:15;;;;;;;7.38;2.25;;;;;;;;;;6209446;23;20059;-50
2023/02/05 00:19:42;;;;;;;4.43;2.20;;;;;;;;;;6208609;23;20107;-52
2023/02/05 00:22:16;;;;;;;6.28;2.33;;;;;;;;;;6209466;23;20027;-69
2023/02/05 00:24:43;;;;;;;6.20;2.40;;;;;;;;;;6207689;23;20085;-69
2023/02/05 00:27:17;;;;;;;4.60;2.50;;;;;;;;;;6208901;23;20096;-69
2023/02/05 00:29:44;;;;;;;7.68;2.67;;;;;;;;;;6207879;23;20031;-69
2023/02/05 00:32:11;;;;;;;7.25;2.70;;;;;;;;;;6209133;23;20020;-69
2023/02/05 00:34:45;;;;;;;8.95;2.60;;;;;;;;;;6208560;23;20632;-69
2023/02/05 00:37:12;;;;;;;8.23;2.67;;;;;;;;;;6208653;23;20052;-55
2023/02/05 00:39:46;;;;;;;6.47;2.90;;;;;;;;;;6209001;23;20101;-64
2023/02/05 00:42:13;;;;;;;5.70;2.30;;;;;;;;;;6208191;23;20465;-64
2023/02/05 00:44:40;;;;;;;7.40;2.85;;;;;;;;;;6207822;23;20099;-64
2023/02/05 00:47:15;;;;;;;6.68;2.50;;;;;;;;;;6209041;23;20039;-64
2023/02/05 00:49:42;;;;;;;9.02;2.60;;;;;;;;;;6208640;23;20028;-64
2023/02/05 00:52:16;;;;;;;6.55;2.13;;;;;;;;;;6208202;23;20584;-64
2023/02/05 00:54:43;;;;;;;6.25;2.60;;;;;;;;;;6208540;23;20225;-69
2023/02/05 00:57:11;;;;;;;5.70;2.30;;;;;;;;;;6208519;23;20017;-62
2023/02/05 00:59:51;;;;;;;9.02;2.92;;;;;;;;;;6207794;23;20047;-52
2023/02/05 01:02:25;;;;;;;6.60;2.65;;;;;;;;;;6208749;23;20103;-54
2023/02/05 01:04:59;;;;;;;10.00;3.78;;;;;;;;;;6208797;23;20024;-56
2023/02/05 01:07:26;;;;;;;4.05;2.47;;;;;;;;;;6208006;23;20043;-56
2023/02/05 01:09:53;;;;;;;6.25;2.45;;;;;;;;;;6209081;23;20066;-56
2023/02/05 01:12:27;;;;;;;8.20;2.47;;;;;;;;;;6208791;23;20020;-52
2023/02/05 01:14:54;;;;;;;6.18;2.10;;;;;;;;;;6207925;23;20361;-54
2023/02/05 01:17:28;;;;;;;7.25;2.55;;;;;;;;;;6208941;23;20024;-58
2023/02/05 01:19:55;;;;;;;9.02;2.97;;;;;;;;;;6207403;23;20544;-56
2023/02/05 01:22:23;;;;;;;6.80;2.60;;;;;;;;;;6208172;23;20059;-57
2023/02/05 01:24:56;;;;;;;5.05;2.67;;;;;;;;;;6208024;23;20021;-58
2023/02/05 01:27:23;;;;;;;7.80;2.97;;;;;;;;;;6207850;23;20252;-57
2023/02/05 01:29:57;;;;;;;9.27;2.70;;;;;;;;;;6207138;23;20138;-59
2023/02/05 01:32:36;;;;;;;7.88;3.38;;;;;;;;;;6208269;23;20026;-69
2023/02/05 01:35:09;;;;;;;6.25;2.95;;;;;;;;;;6208394;23;20027;-52
2023/02/05 01:37:36;;;;;;;9.68;2.80;;;;;;;;;;6207810;23;20564;-53
2023/02/05 01:40:04;;;;;;;10.20;2.92;;;;;;;;;;6208712;23;20064;-55
2023/02/05 01:42:37;;;;;;;8.95;2.58;;;;;;;;;;6207030;23;20021;-56
2023/02/05 01:45:23;;;;;;;5.72;2.60;;;;;;;;;;6207340;23;20029;-56
2023/02/05 01:47:59;;;;;;;5.20;2.30;;;;;;;;;;6208493;23;20026;-54
2023/02/05 01:50:26;;;;;;;9.77;2.95;;;;;;;;;;6208475;23;20067;-54
2023/02/05 01:53:02;;;;;;;8.02;2.35;;;;;;;;;;6208822;23;20020;-56
2023/02/05 01:55:30;;;;;;;10.40;2.15;;;;;;;;;;6206450;23;20870;-57
2023/02/05 01:58:04;;;;;;;5.85;2.60;;;;;;;;;;6207667;23;20059;-59
2023/02/05 02:00:31;;;;;;;7.50;2.35;;;;;;;;;;6206444;23;20028;-57
2023/02/05 02:03:05;;;;;;;8.98;2.67;;;;;;;;;;6209532;23;20020;-58
2023/02/05 02:05:32;;;;;;;7.70;2.58;;;;;;;;;;6210090;23;20485;-59
2023/02/05 02:08:06;;;;;;;5.20;2.08;;;;;;;;;;6210618;23;20055;-57
2023/02/05 02:10:34;;;;;;;11.18;2.72;;;;;;;;;;6209848;23;20123;-51
2023/02/05 02:13:01;;;;;;;4.75;2.28;;;;;;;;;;6209915;23;20096;-58
2023/02/05 02:15:35;;;;;;;4.13;2.30;;;;;;;;;;6209545;23;20095;-65
2023/02/05 02:21:15;;;;;;;6.05;2.55;;;;;;;;;;6209639;23;20035;-65
2023/02/05 02:23:45;;;;;;;14.07;2.63;;;;;;;;;;6209649;23;20136;-65
2023/02/05 02:26:31;;;;;;;9.00;2.35;;;;;;;;;;6210929;23;20021;-65
2023/02/05 02:29:01;;;;;;;9.32;2.42;;;;;;;;;;6208629;23;20458;-64
2023/02/05 02:31:38;;;;;;;5.70;2.47;;;;;;;;;;6206620;23;20599;-49
2023/02/05 02:34:16;;;;;;;4.50;2.35;;;;;;;;;;6210121;23;20361;-62
2023/02/05 02:37:01;;;;;;;12.00;2.60;;;;;;;;;;6206583;23;20167;-62
2023/02/05 02:39:40;;;;;;;5.88;2.33;;;;;;;;;;6208730;23;20070;-61
2023/02/05 02:42:12;;;;;;;5.72;2.38;;;;;;;;;;6209292;23;20135;-62
2023/02/05 02:44:46;;;;;;;6.60;2.33;;;;;;;;;;6210056;23;20568;-62
2023/02/05 02:47:15;;;;;;;6.30;2.20;;;;;;;;;;6209414;23;20059;-62
2023/02/05 02:50:04;;;;;;;5.88;2.97;;;;;;;;;;6208082;23;20024;-57
2023/02/05 02:52:34;;;;;;;10.88;2.50;;;;;;;;;;6208916;23;20028;-57
2023/02/05 02:55:09;;;;;;;6.82;2.35;;;;;;;;;;6210084;23;20103;-57
2023/02/05 02:57:39;;;;;;;6.88;2.20;;;;;;;;;;6207396;23;20381;-58
2023/02/05 03:00:10;;;;;;;5.95;2.20;;;;;;;;;;6207293;23;20067;-57
2023/02/05 03:02:53;;;;;;;6.97;2.40;;;;;;;;;;6210005;23;20104;-57
2023/02/05 03:05:22;;;;;;;11.57;2.70;;;;;;;;;;6208547;23;20456;-57
2023/02/05 03:08:07;;;;;;;7.30;3.00;;;;;;;;;;6209720;23;20040;-63
2023/02/05 03:10:50;;;;;;;4.75;2.42;;;;;;;;;;6209860;23;20027;-55
2023/02/05 03:13:44;;;;;;;8.13;2.83;;;;;;;;;;6210064;23;20024;-62
2023/02/05 03:16:12;;;;;;;9.35;2.33;;;;;;;;;;6208693;23;20100;-62
2023/02/05 03:18:46;;;;;;;7.93;2.53;;;;;;;;;;6209012;23;20028;-62
2023/02/05 03:21:13;;;;;;;;;;;;;;;;;;6209690;23;20395;-62
2023/02/05 03:23:40;;;;;;;6.53;2.65;;;;;;;;;;6209629;23;19995;-62
2023/02/05 03:26:28;;;;;;;6.97;2.60;;;;;;;;;;6208926;23;20064;-62
2023/02/05 03:28:56;;;;;;;9.75;2.67;;;;;;;;;;6183369;23;20021;-64
2023/02/05 03:31:39;;;;;;;7.00;2.75;;;;;;;;;;6210078;23;20435;-58
2023/02/05 03:34:11;;;;;;;8.25;2.50;;;;;;;;;;6182142;23;20493;-58
2023/02/05 03:36:52;;;;;;;6.90;2.90;;;;;;;;;;6208637;23;20474;-57
2023/02/05 03:39:48;;;;;;;4.93;2.70;;;;;;;;;;6209579;23;20044;-57
2023/02/05 03:42:31;;;;;;;5.72;2.63;;;;;;;;;;6188787;23;20048;-59
2023/02/05 03:45:17;;;;;;;5.20;2.40;;;;;;;;;;6209410;23;20094;-57
2023/02/05 03:48:00;;;;;;;5.72;3.00;;;;;;;;;;6209461;23;20054;-62
2023/02/05 03:50:27;;;;;;;11.48;2.40;;;;;;;;;;6209046;23;20354;-62
2023/02/05 03:53:24;;;;;;;11.15;2.67;;;;;;;;;;6208569;23;20071;-62
2023/02/05 03:55:55;;;;;;;13.18;2.70;;;;;;;;;;6193122;23;20020;-63
2023/02/05 03:58:43;;;;;;;7.00;2.63;;;;;;;;;;6209365;23;20056;-62
2023/02/05 04:01:17;;;;;;;8.98;2.58;;;;;;;;;;6208532;23;20028;-62
2023/02/05 04:03:51;;;;;;;9.80;2.67;;;;;;;;;;6208382;23;20021;-62
2023/02/05 04:06:18;;;;;;;8.48;2.35;;;;;;;;;;6208075;23;20103;-57
2023/02/05 04:08:46;;;;;;;8.10;2.70;;;;;;;;;;6209647;23;20107;-63
2023/02/05 04:11:19;;;;;;;7.30;2.90;;;;;;;;;;6208648;23;20021;-62
2023/02/05 04:13:46;;;;;;;14.93;2.80;;;;;;;;;;6209190;23;20028;-62
2023/02/05 04:16:27;;;;;;;4.70;2.30;;;;;;;;;;6208546;23;20075;-62
2023/02/05 04:18:55;;;;;;;10.93;2.53;;;;;;;;;;6157205;23;20102;-63
2023/02/05 04:21:28;;;;;;;7.45;2.47;;;;;;;;;;6209094;23;20028;-62
2023/02/05 04:23:55;;;;;;;;;;;;;;;;;;6209625;23;20493;-58
2023/02/05 04:26:23;;;;;;;9.25;2.83;;;;;;;;;;6208042;23;20022;-55
2023/02/05 04:28:56;;;;;;;5.28;2.60;;;;;;;;;;6208775;23;20028;-54
2023/02/05 04:31:23;;;;;;;8.07;2.78;;;;;;;;;;6209331;23;20031;-54
2023/02/05 04:33:57;;;;;;;7.95;2.80;;;;;;;;;;6207354;23;20027;-56
2023/02/05 04:36:24;;;;;;;;;;;;;;;;;;6209108;23;20052;-55
2023/02/05 04:38:58;;;;;;;15.35;2.72;;;;;;;;;;6208458;23;20007;-58
2023/02/05 04:41:32;;;;;;;8.18;2.45;;;;;;;;;;6208971;23;20044;-55
2023/02/05 04:43:59;;;;;;;5.63;2.33;;;;;;;;;;6208370;23;20103;-56
2023/02/05 04:46:33;;;;;;;8.20;2.53;;;;;;;;;;6208292;23;20320;-62
2023/02/05 04:49:00;;;;;;;9.10;2.80;;;;;;;;;;6208509;23;20025;-56
2023/02/05 04:51:27;;;;;;;7.93;2.33;;;;;;;;;;6208051;23;20467;-50
2023/02/05 04:54:01;;;;;;;10.80;2.70;;;;;;;;;;6208518;23;20103;-52
2023/02/05 04:56:29;;;;;;;8.45;2.58;;;;;;;;;;6207818;23;20028;-55
2023/02/05 04:59:03;;;;;;;6.22;2.90;;;;;;;;;;6208968;23;20016;-54
2023/02/05 05:01:37;;;;;;;10.95;2.78;;;;;;;;;;6207508;23;20072;-53
2023/02/05 05:04:10;;;;;;;13.10;2.90;;;;;;;;;;6207486;23;20107;-58
2023/02/05 05:06:44;;;;;;;12.52;2.75;;;;;;;;;;6208036;23;20100;-62
2023/02/05 05:09:11;;;;;;;12.20;2.83;;;;;;;;;;6208893;23;20043;-62
2023/02/05 05:11:39;;;;;;;4.88;2.42;;;;;;;;;;6208299;23;20340;-62
2023/02/05 05:14:12;;;;;;;8.07;2.53;;;;;;;;;;6208546;23;20095;-62
2023/02/05 05:16:39;;;;;;;8.27;2.88;;;;;;;;;;6207944;23;20051;-63
2023/02/05 05:19:13;;;;;;;8.13;2.95;;;;;;;;;;6207978;23;20027;-62
2023/02/05 05:21:40;;;;;;;7.20;2.60;;;;;;;;;;6206964;23;20060;-55
2023/02/05 05:24:07;;;;;;;6.47;2.88;;;;;;;;;;6209417;23;20055;-62
2023/02/05 05:26:43;;;;;;;8.85;2.80;;;;;;;;;;6207940;23;20059;-58
2023/02/05 05:29:11;;;;;;;8.02;2.50;;;;;;;;;;6207805;23;20043;-57
2023/02/05 05:31:45;;;;;;;11.23;3.03;;;;;;;;;;6208327;23;20028;-59
2023/02/05 05:34:12;;;;;;;11.55;3.05;;;;;;;;;;6207171;23;20025;-55
2023/02/05 05:36:42;;;;;;;7.30;2.33;;;;;;;;;;6206725;23;20063;-57
2023/02/05 05:44:56;;;;;;;12.23;2.95;;;;;;;;;;6208740;23;20478;-59
2023/02/05 05:47:29;;;;;;;9.13;2.78;;;;;;;;;;6206996;23;20032;-55
2023/02/05 05:49:56;;;;;;;10.60;2.88;;;;;;;;;;6208215;23;20104;-57
2023/02/05 05:52:30;;;;;;;10.82;2.95;;;;;;;;;;6207873;23;20409;-56
2023/02/05 05:54:59;;;;;;;5.63;2.70;;;;;;;;;;6207615;23;20028;-57
2023/02/05 05:57:31;;;;;;;8.20;2.92;;;;;;;;;;6207211;23;20142;-59
2023/02/05 06:00:12;;;;;;;6.93;2.72;;;;;;;;;;6208148;23;20056;-69
2023/02/05 06:02:46;;;;;;;8.85;3.03;;;;;;;;;;6206684;23;20030;-63
2023/02/05 06:05:20;;;;;;;11.25;2.72;;;;;;;;;;6208639;23;20087;-58
2023/02/05 06:07:48;;;;;;;13.38;2.80;;;;;;;;;;6206986;23;20111;-56
2023/02/05 06:10:15;;;;;;;13.98;2.95;;;;;;;;;;6208175;23;20099;-58
2023/02/05 06:12:49;;;;;;;10.48;2.97;;;;;;;;;;6207698;23;20103;-56
2023/02/05 06:15:16;;;;;;;13.13;3.20;;;;;;;;;;6209416;23;20059;-53
2023/02/05 06:17:43;;;;;;;12.25;3.33;;;;;;;;;;6206943;23;20048;-55
2023/02/05 06:20:17;;;;;;;9.40;2.72;;;;;;;;;;6183045;23;20417;-62
2023/02/05 06:22:44;;;;;;;11.80;3.28;;;;;;;;;;6207815;23;20104;-69
2023/02/05 06:25:18;;;;;;;7.97;3.00;;;;;;;;;;6207851;23;20382;-69
2023/02/05 06:27:45;;;;;;;9.48;2.92;;;;;;;;;;6207055;23;20024;-69
2023/02/05 06:30:13;;;;;;;7.00;2.80;;;;;;;;;;6207115;23;20349;-70
2023/02/05 06:32:46;;;;;;;8.98;3.58;;;;;;;;;;6207142;23;20047;-69
2023/02/05 06:35:13;;;;;;;7.57;2.95;;;;;;;;;;6208354;23;20020;-69
2023/02/05 06:37:41;;;;;;;20.13;3.97;;;;;;;;;;6206965;23;20051;-64
2023/02/05 06:40:16;;;;;;;12.68;3.38;;;;;;;;;;6207376;23;20021;-58
2023/02/05 06:42:44;;;;;;;9.13;2.90;;;;;;;;;;6207727;23;20032;-70
2023/02/05 06:45:18;;;;;;;12.80;3.08;;;;;;;;;;6209190;23;20031;-70
2023/02/05 06:47:46;;;;;;;9.35;2.95;;;;;;;;;;6206857;23;20048;-70
2023/02/05 06:50:13;;;;;;;9.48;2.83;;;;;;;;;;6209744;23;20028;-70
2023/02/05 06:52:48;;;;;;;7.63;2.58;;;;;;;;;;6208278;23;20024;-70
2023/02/05 06:55:16;;;;;;;11.60;3.00;;;;;;;;;;6208770;23;20393;-70
2023/02/05 06:57:58;;;;;;;8.98;2.85;;;;;;;;;;6209476;23;20024;-59
2023/02/05 07:00:32;;;;;;;9.52;2.60;;;;;;;;;;6209829;23;20048;-70
2023/02/05 07:03:13;;;;;;;9.48;2.58;;;;;;;;;;6210459;23;20365;-69
2023/02/05 07:05:40;;;;;;;6.40;2.17;;;;;;;;;;6209705;23;20548;-70
2023/02/05 07:08:14;;;;;;;13.27;3.58;;;;;;;;;;6208731;23;20020;-70
2023/02/05 07:10:48;;;;;;;12.52;3.00;;;;;;;;;;6209522;23;20051;-70
2023/02/05 07:13:15;;;;;;;9.80;2.92;;;;;;;;;;6209145;23;20052;-70
2023/02/05 07:15:49;;;;;;;10.32;2.42;;;;;;;;;;6208612;23;20023;-54
2023/02/05 07:18:16;;;;;;;13.70;3.30;;;;;;;;;;6210039;23;20029;-65
2023/02/05 07:20:44;;;;;;;13.07;2.90;;;;;;;;;;6181663;23;20223;-59
2023/02/05 07:23:17;;;;;;;8.18;2.75;;;;;;;;;;6209226;23;20027;-59
2023/02/05 07:25:45;;;;;;;17.10;3.13;;;;;;;;;;6209784;23;20103;-57
2023/02/05 07:28:12;;;;;;;;;;;;;;;;;;6209327;23;20100;-57
2023/02/05 07:30:46;;;;;;;21.15;2.90;;;;;;;;;;6209098;23;20545;-56
2023/02/05 07:33:13;;;;;;;10.82;3.10;;;;;;;;;;6210324;23;20032;-58
2023/02/05 07:35:47;;;;;;;11.90;2.60;;;;;;;;;;6208515;23;20452;-64
2023/02/05 07:38:14;;;;;;;17.30;3.63;;;;;;;;;;6209159;23;20357;-64
2023/02/05 07:40:42;;;;;;;10.20;2.40;;;;;;;;;;6208407;23;20147;-64
2023/02/05 07:43:15;;;;;;;8.65;3.13;;;;;;;;;;6209764;23;20354;-64
2023/02/05 07:45:42;;;;;;;15.55;3.90;;;;;;;;;;6208078;23;20021;-64
2023/02/05 07:48:16;;;;;;;14.07;2.90;;;;;;;;;;6209609;23;20021;-64
2023/02/05 07:50:44;;;;;;;9.45;2.67;;;;;;;;;;6208338;23;20212;-64
2023/02/05 07:53:11;;;;;;;14.15;3.13;;;;;;;;;;6208685;23;20028;-64
2023/02/05 07:55:44;;;;;;;13.82;3.13;;;;;;;;;;6209336;23;20023;-51
2023/02/05 07:58:12;;;;;;;13.90;3.85;;;;;;;;;;6208429;23;20536;-51
2023/02/05 08:00:52;;;;;;;15.15;3.20;;;;;;;;;;6206206;23;20027;-52
2023/02/05 08:03:26;;;;;;;12.00;2.80;;;;;;;;;;6209348;23;20029;-51
2023/02/05 08:06:02;;;;;;;12.90;3.30;;;;;;;;;;6208479;23;20474;-53
2023/02/05 08:08:36;;;;;;;14.93;2.97;;;;;;;;;;6208284;23;20016;-54
2023/02/05 08:11:05;;;;;;;15.10;3.17;;;;;;;;;;6182791;23;20096;-50
2023/02/05 08:13:32;;;;;;;12.15;2.90;;;;;;;;;;6208340;23;20017;-57
2023/02/05 08:16:06;;;;;;;14.65;3.03;;;;;;;;;;6208797;23;20031;-54
2023/02/05 08:18:34;;;;;;;11.35;2.85;;;;;;;;;;6208642;23;20043;-71
2023/02/05 08:21:07;;;;;;;12.88;3.55;;;;;;;;;;6208138;23;20521;-70
2023/02/05 08:23:34;;;;;;;8.55;3.13;;;;;;;;;;6205658;23;20030;-71
2023/02/05 08:26:01;;;;;;;11.23;3.00;;;;;;;;;;6208535;23;20055;-70
2023/02/05 08:28:35;;;;;;;13.75;4.53;;;;;;;;;;6207614;23;20027;-71
2023/02/05 08:31:08;;;;;;;11.18;3.72;;;;;;;;;;6208061;23;20107;-71
2023/02/05 08:33:43;;;;;;;23.02;5.63;;;;;;;;;;6207033;23;20024;-58
2023/02/05 08:36:10;;;;;;;18.13;7.13;;;;;;;;;;6207827;23;20047;-58
2023/02/05 08:38:37;;;;;;;16.33;3.63;;;;;;;;;;6206620;23;20083;-59
2023/02/05 08:41:11;;;;;;;12.05;4.05;;;;;;;;;;6209091;23;20513;-55
2023/02/05 08:43:39;;;;;;;15.13;3.63;;;;;;;;;;6207307;23;20031;-56
2023/02/05 08:46:14;;;;;;;15.10;5.07;;;;;;;;;;6207772;23;20489;-58
2023/02/05 08:48:41;;;;;;;16.17;4.75;;;;;;;;;;6207597;23;20136;-58
2023/02/05 08:51:09;;;;;;;12.00;3.55;;;;;;;;;;6207406;23;20025;-51
2023/02/05 08:53:43;;;;;;;14.25;4.07;;;;;;;;;;6207886;23;20024;-57
2023/02/05 08:56:12;;;;;;;12.45;4.85;;;;;;;;;;6208655;23;20462;-54
2023/02/05 08:58:46;;;;;;;13.07;3.55;;;;;;;;;;6205340;23;20035;-52
2023/02/05 09:01:15;;;;;;;17.25;3.38;;;;;;;;;;6207892;23;20028;-58
2023/02/05 09:03:56;;;;;;;21.02;3.63;;;;;;;;;;6207626;23;20025;-57
2023/02/05 09:06:23;;;;;;;8.88;3.58;;;;;;;;;;6208642;23;20353;-57
2023/02/05 09:08:57;;;;;;;11.48;3.22;;;;;;;;;;6182917;23;20035;-58
2023/02/05 09:11:29;;;;;;;9.80;3.38;;;;;;;;;;6208789;23;20095;-57
2023/02/05 09:13:57;;;;;;;15.45;3.40;;;;;;;;;;6208707;23;20031;-64
2023/02/05 09:16:30;;;;;;;7.55;2.58;;;;;;;;;;6207551;23;20017;-64
2023/02/05 09:18:58;;;;;;;17.15;3.33;;;;;;;;;;6206835;23;20032;-64
2023/02/05 09:21:32;;;;;;;9.85;3.25;;;;;;;;;;6206742;23;20031;-64
2023/02/05 09:23:59;;;;;;;10.15;3.08;;;;;;;;;;6206601;23;20021;-64
2023/02/05 09:26:27;;;;;;;13.13;3.53;;;;;;;;;;6207818;23;20028;-64
2023/02/05 09:29:00;;;;;;;11.93;3.33;;;;;;;;;;6206533;23;20063;-55
2023/02/05 09:31:27;;;;;;;17.55;2.90;;;;;;;;;;6204811;23;20148;-53
2023/02/05 09:34:02;;;;;;;14.07;3.25;;;;;;;;;;6205910;23;20031;-63
2023/02/05 09:36:29;;;;;;;12.25;3.30;;;;;;;;;;6208529;23;20024;-63
2023/02/05 09:38:56;;;;;;;14.75;3.40;;;;;;;;;;6206578;23;20787;-63
2023/02/05 09:42:10;;;;;;;16.98;3.78;;;;;;;;;;6206697;23;20074;-62
2023/02/05 09:44:49;;;;;;;20.73;3.58;;;;;;;;;;6207155;23;20052;-63
2023/02/05 09:47:33;;;;;;;13.85;4.35;;;;;;;;;;6204569;23;20051;-62
2023/02/05 09:50:14;;;;;;;19.05;4.20;;;;;;;;;;6206961;23;20052;-64
2023/02/05 09:52:50;;;;;;;17.90;4.13;;;;;;;;;;6207276;23;20024;-57
2023/02/05 09:55:20;;;;;;;19.13;8.30;;;;;;;;;;6206497;23;20375;-59
2023/02/05 09:57:55;;;;;;;14.85;4.68;;;;;;;;;;6208379;23;20024;-60
2023/02/05 10:00:27;;;;;;;17.95;4.80;;;;;;;;;;6206184;23;20021;-60
2023/02/05 10:03:11;;;;;;;12.88;3.90;;;;;;;;;;6151356;23;20029;-57
2023/02/05 10:05:46;;;;;;;21.20;3.80;;;;;;;;;;6175267;23;20028;-59
2023/02/05 10:08:20;;;;;;;11.10;3.17;;;;;;;;;;6177036;23;20102;-52
2023/02/05 10:10:49;;;;;;;12.05;3.22;;;;;;;;;;6177045;23;20033;-57
2023/02/05 10:13:28;;;;;;;11.30;3.55;;;;;;;;;;6176387;23;20100;-56
2023/02/05 10:16:01;;;;;;;10.57;2.95;;;;;;;;;;6176734;23;20532;-56
2023/02/05 10:18:43;;;;;;;15.15;3.47;;;;;;;;;;6152399;23;20024;-55
2023/02/05 10:21:23;;;;;;;12.38;2.90;;;;;;;;;;6176506;23;20100;-56
2023/02/05 10:23:57;;;;;;;7.47;2.88;;;;;;;;;;6177225;23;20609;-57
2023/02/05 10:26:30;;;;;;;10.65;2.90;;;;;;;;;;6179723;23;20017;-54
2023/02/05 10:29:25;;;;;;;8.93;2.67;;;;;;;;;;6177014;23;20274;-55
2023/02/05 10:31:58;;;;;;;13.77;4.68;;;;;;;;;;6117090;23;20032;-58
2023/02/05 10:34:45;;;;;;;11.43;3.50;;;;;;;;;;6153016;23;20021;-56
2023/02/05 10:37:20;;;;;;;12.20;3.50;;;;;;;;;;6177333;23;20072;-55
2023/02/05 10:39:56;;;;;;;15.10;5.65;;;;;;;;;;6179966;23;20024;-56
2023/02/05 10:42:28;;;;;;;13.60;3.80;;;;;;;;;;6178438;23;20031;-59
2023/02/05 10:45:22;;;;;;;8.60;3.10;;;;;;;;;;6176986;23;20021;-57
2023/02/05 10:47:58;;;;;;;13.18;3.28;;;;;;;;;;6151331;23;20033;-70
2023/02/05 10:50:31;;;;;;;13.20;2.85;;;;;;;;;;6178050;23;20021;-63
2023/02/05 10:52:59;;;;;;;11.23;2.60;;;;;;;;;;6179394;23;20027;-62
2023/02/05 10:55:32;;;;;;;7.63;2.67;;;;;;;;;;6178223;23;20024;-63
2023/02/05 10:58:01;;;;;;;13.63;2.88;;;;;;;;;;6177709;23;20021;-63
2023/02/05 11:00:29;;;;;;;10.45;3.03;;;;;;;;;;6180023;23;20108;-63
2023/02/05 11:03:10;;;;;;;11.65;2.67;;;;;;;;;;6208589;23;20073;-63
2023/02/05 11:05:39;;;;;;;11.75;2.65;;;;;;;;;;6181834;23;20349;-63
2023/02/05 11:08:32;;;;;;;6.35;3.05;;;;;;;;;;6208690;23;20103;-62
2023/02/05 11:10:59;;;;;;;8.93;2.90;;;;;;;;;;6204853;23;20096;-64
2023/02/05 11:13:34;;;;;;;8.13;2.60;;;;;;;;;;6208241;23;20100;-62
2023/02/05 11:16:06;;;;;;;10.10;2.85;;;;;;;;;;6209150;23;20099;-62
2023/02/05 11:18:43;;;;;;;8.82;2.83;;;;;;;;;;6207425;23;20027;-62
2023/02/05 11:21:11;;;;;;;8.43;2.83;;;;;;;;;;6208209;23;20115;-62
2023/02/05 11:23:39;;;;;;;5.90;2.58;;;;;;;;;;6208081;23;20063;-52
2023/02/05 11:26:19;;;;;;;8.20;2.60;;;;;;;;;;6208126;23;20108;-54
2023/02/05 11:28:46;;;;;;;10.45;3.00;;;;;;;;;;6205375;23;20060;-50
2023/02/05 11:31:25;;;;;;;9.00;2.92;;;;;;;;;;6208172;23;20096;-55
2023/02/05 11:34:09;;;;;;;8.15;3.25;;;;;;;;;;6207864;23;20023;-55
2023/02/05 11:36:56;;;;;;;11.48;3.58;;;;;;;;;;6207042;23;20757;-58
2023/02/05 11:39:35;;;;;;;12.65;3.63;;;;;;;;;;6207565;23;20176;-57
2023/02/05 11:42:20;;;;;;;7.15;3.22;;;;;;;;;;6208447;23;20020;-64
2023/02/05 11:44:50;;;;;;;6.93;3.40;;;;;;;;;;6208801;23;20059;-55
2023/02/05 11:47:24;;;;;;;9.95;3.42;;;;;;;;;;6207553;23;20050;-56
2023/02/05 11:49:51;;;;;;;15.23;3.83;;;;;;;;;;6205174;23;20027;-55
2023/02/05 11:52:24;;;;;;;8.73;3.25;;;;;;;;;;6209135;23;20780;-54
2023/02/05 11:54:58;;;;;;;13.93;3.38;;;;;;;;;;6209635;23;20116;-56
2023/02/05 12:55:05;;;;;;;14.45;7.97;;;;;;;;;;6262352;22;20039;-70
2023/02/05 12:57:53;;;;;;;26.17;17.73;;;;;;;;;;6266175;22;20019;-70
2023/02/05 13:00:31;;;;;;;7.43;3.97;;;;;;;;;;6268197;22;20519;-59
2023/02/05 13:03:02;;;;;;;5.32;2.60;;;;;;;;;;6268108;22;20019;-58
2023/02/05 13:05:42;;;;;;;59.65;28.55;;;;;;;;;;6267208;22;20098;-56
2023/02/05 13:08:13;;;;;;;11.00;4.88;;;;;;;;;;6266890;22;20030;-52
2023/02/05 13:10:55;;;;;;;5.80;3.03;;;;;;;;;;6268156;22;20034;-53
2023/02/05 13:13:26;;;;;;;8.73;3.53;;;;;;;;;;6268787;22;20053;-55
2023/02/05 13:16:05;;;;;;;3.83;2.33;;;;;;;;;;6268519;22;20016;-55
2023/02/05 13:18:39;;;;;;;7.03;2.75;;;;;;;;;;6267078;22;20389;-54
2023/02/05 13:30:27;;;;;;;6.80;2.60;;;;;;;;;;6268946;22;20495;-50
2023/02/05 13:33:03;;;;;;;3.67;2.30;;;;;;;;;;6265326;22;20054;-51
2023/02/05 13:35:33;;;;;;;4.40;2.50;;;;;;;;;;6268009;22;20061;-55
2023/02/05 13:38:20;;;;;;;3.92;2.53;;;;;;;;;;6267718;22;20444;-58
2023/02/05 13:41:10;;;;;;;7.72;2.78;;;;;;;;;;6268006;22;20032;-58
2023/02/05 13:43:56;;;;;;;6.68;2.83;;;;;;;;;;6267277;22;20062;-58
2023/02/05 13:46:27;;;;;;;5.93;2.53;;;;;;;;;;6267585;22;20095;-57
2023/02/05 13:49:09;;;;;;;7.82;2.95;;;;;;;;;;6267208;22;20126;-58
2023/02/05 13:51:41;;;;;;;5.95;3.22;;;;;;;;;;6268922;22;20102;-59
2023/02/05 13:54:18;;;;;;;8.52;4.68;;;;;;;;;;6265807;22;20338;-58
2023/02/05 13:57:03;;;;;;;7.50;3.90;;;;;;;;;;6267006;22;20406;-57
2023/02/05 13:59:39;;;;;;;5.95;3.60;;;;;;;;;;6266981;22;20026;-59
2023/02/05 14:02:26;;;;;;;6.70;3.80;;;;;;;;;;6267779;22;20062;-60
2023/02/05 14:05:01;;;;;;;7.55;3.35;;;;;;;;;;6266018;22;20024;-60
2023/02/05 14:07:33;;;;;;;5.35;3.17;;;;;;;;;;6267872;22;20047;-59
2023/02/05 14:10:27;;;;;;;8.50;3.90;;;;;;;;;;6264004;22;20024;-57
2023/02/05 14:12:56;;;;;;;;;;;;;;;;;;6240145;22;20047;-61
2023/02/05 14:15:36;;;;;;;7.90;3.38;;;;;;;;;;6267154;22;20259;-65
2023/02/05 14:18:04;;;;;;;12.50;4.05;;;;;;;;;;6264891;22;20073;-48
2023/02/05 14:20:40;;;;;;;8.07;3.65;;;;;;;;;;6266817;22;20098;-48
2023/02/05 14:23:15;;;;;;;6.28;4.05;;;;;;;;;;6264944;22;20379;-48
2023/02/05 14:26:05;;;;;;;6.93;4.20;;;;;;;;;;6263614;22;20110;-50
2023/02/05 14:28:33;;;;;;;7.78;4.00;;;;;;;;;;6265163;22;20087;-50
2023/02/05 14:31:07;;;;;;;8.80;4.07;;;;;;;;;;6265055;22;20611;-50
2023/02/05 14:33:41;;;;;;;8.90;4.38;;;;;;;;;;6266179;22;20112;-51
2023/02/05 14:36:15;;;;;;;15.63;7.15;;;;;;;;;;6265138;22;20103;-52
2023/02/05 14:38:44;;;;;;;;;;;;;;;;;;6264458;22;20023;-53
2023/02/05 14:41:19;;;;;;;352.65;141.40;;;;;;;;;;6267509;22;20002;-54
2023/02/05 14:43:54;;;;;;;251.52;102.07;;;;;;;;;;6264681;22;20457;-55
2023/02/05 14:46:35;;;;;;;122.60;53.00;;;;;;;;;;6263162;22;20039;-55
2023/02/05 14:49:04;;;;;;;55.35;23.05;;;;;;;;;;6265719;22;20020;-56
2023/02/05 14:51:40;;;;;;;92.43;36.50;;;;;;;;;;6267760;22;20544;-55
2023/02/05 14:54:22;;;;;;;25.45;10.77;;;;;;;;;;6266952;22;20024;-54
2023/02/05 14:57:15;;;;;;;37.92;18.00;;;;;;;;;;6264806;22;20103;-62
2023/02/05 14:59:54;;;;;;;49.90;22.65;;;;;;;;;;6267736;22;20034;-63
2023/02/05 15:02:47;;;;;;;47.78;22.63;;;;;;;;;;6267192;22;20098;-62
2023/02/05 15:05:34;;;;;;;41.42;18.60;;;;;;;;;;6268227;22;20023;-62
2023/02/05 15:08:27;;;;;;;24.05;11.27;;;;;;;;;;6252273;22;20051;-62
2023/02/05 15:10:54;;;;;;;13.82;7.28;;;;;;;;;;6269755;22;20051;-62
2023/02/05 15:13:28;;;;;;;18.83;7.80;;;;;;;;;;6271368;22;20023;-62
2023/02/05 15:16:11;;;;;;;14.50;7.05;;;;;;;;;;6269817;22;20023;-62
2023/02/05 15:19:20;;;;;;;18.30;9.27;;;;;;;;;;6269177;22;20023;-62
2023/02/05 15:21:51;;;;;;;14.13;8.18;;;;;;;;;;6245342;22;20026;-62
2023/02/05 15:24:27;;;;;;;18.90;6.50;;;;;;;;;;6269633;22;20120;-62
2023/02/05 15:26:58;;;;;;;14.05;7.30;;;;;;;;;;6270370;22;20043;-62
2023/02/05 15:29:40;;;;;;;11.68;5.45;;;;;;;;;;6268702;22;20078;-62
2023/02/05 15:32:16;;;;;;;10.70;5.35;;;;;;;;;;6268667;22;20421;-68
2023/02/05 15:34:50;;;;;;;11.25;5.88;;;;;;;;;;6270980;22;20022;-49
2023/02/05 15:37:33;;;;;;;14.77;7.03;;;;;;;;;;6269927;22;20023;-54
2023/02/05 15:40:09;;;;;;;13.55;6.82;;;;;;;;;;6268603;22;20047;-53
2023/02/05 15:42:44;;;;;;;11.07;5.85;;;;;;;;;;6269392;22;20019;-53
2023/02/05 15:45:22;;;;;;;17.33;6.32;;;;;;;;;;6240595;22;20114;-52
2023/02/05 15:47:58;;;;;;;12.38;6.53;;;;;;;;;;6243566;22;20030;-49
2023/02/05 15:50:26;;;;;;;15.23;6.78;;;;;;;;;;6268212;22;20126;-56
2023/02/05 15:53:01;;;;;;;13.32;7.28;;;;;;;;;;6245318;22;20016;-60
2023/02/05 15:55:28;;;;;;;20.63;8.30;;;;;;;;;;6268001;22;20022;-61
2023/02/05 15:58:18;;;;;;;16.52;7.72;;;;;;;;;;6268395;22;20058;-56
2023/02/05 16:00:55;;;;;;;17.35;7.63;;;;;;;;;;6268621;22;20047;-55
2023/02/05 16:03:37;;;;;;;13.82;8.02;;;;;;;;;;6269215;22;20130;-57
2023/02/05 16:06:05;;;;;;;15.48;6.78;;;;;;;;;;6268849;22;20495;-56
2023/02/05 16:08:45;;;;;;;14.15;6.88;;;;;;;;;;6267325;22;20095;-57
2023/02/05 16:11:12;;;;;;;12.98;6.70;;;;;;;;;;6268761;22;20066;-64
2023/02/05 16:13:46;;;;;;;17.27;8.35;;;;;;;;;;6269669;22;20015;-64
2023/02/05 16:16:18;;;;;;;24.25;9.30;;;;;;;;;;6268227;22;20268;-63
2023/02/05 16:18:51;;;;;;;16.75;9.95;;;;;;;;;;6267542;22;20023;-64
2023/02/05 16:21:31;;;;;;;20.65;10.55;;;;;;;;;;6268975;22;20027;-64
2023/02/05 16:24:00;;;;;;;23.88;11.50;;;;;;;;;;6268927;22;20028;-64
2023/02/05 16:26:39;;;;;;;31.40;12.35;;;;;;;;;;6268653;22;20028;-63
2023/02/05 16:29:07;;;;;;;35.92;13.15;;;;;;;;;;6269440;22;20020;-58
2023/02/05 16:32:01;;;;;;;183.85;18.17;;;;;;;;;;6268129;22;20022;-48
2023/02/05 16:34:29;;;;;;;43.47;13.80;;;;;;;;;;6265345;22;20602;-50